Time;durP1;ratioP1;P1;durP2;ratioP2;P2;SDS_P1;SDS_P2;PMS_P1;PMS_P2;Temp;Humidity;BMP_temperature;BMP_pressure;BME280_temperature;BME280_humidity;BME280_pressure;Samples;Min_cycle;Max_cycle;Signal;HPM_P1;HPM_P2
2023/07/15 00:01:23;;;;;;;12.17;4.40;;;;;;;16.91;73.56;100303.72;4219794;28;20996;-65
2023/07/15 00:03:51;;;;;;;15.57;4.60;;;;;;;16.85;73.80;100312.66;4215649;28;21485;-67
2023/07/15 00:06:20;;;;;;;17.50;5.73;;;;;;;16.82;73.65;100301.25;4229446;28;21789;-67
2023/07/15 00:08:48;;;;;;;12.93;4.80;;;;;;;16.74;73.90;100294.88;4234272;28;20232;-66
2023/07/15 00:11:22;;;;;;;8.23;4.17;;;;;;;16.75;73.83;100302.03;4222166;28;20273;-67
2023/07/15 00:13:49;;;;;;;9.07;4.20;;;;;;;16.70;73.68;100296.31;4218487;28;20319;-67
2023/07/15 00:16:15;;;;;;;12.17;4.50;;;;;;;16.72;73.58;100294.22;4234217;28;21321;-66
2023/07/15 00:18:42;;;;;;;15.97;4.10;;;;;;;16.74;73.50;100300.34;4224435;28;20302;-66
2023/07/15 00:21:20;;;;;;;10.27;4.43;;;;;;;16.72;73.51;100298.84;4217662;28;20535;-68
2023/07/15 00:23:55;;;;;;;11.80;4.30;;;;;;;16.68;73.59;100298.38;4236090;28;20536;-67
2023/07/15 00:26:23;;;;;;;8.47;4.10;;;;;;;16.69;73.34;100291.03;4238837;28;20224;-66
2023/07/15 00:28:50;;;;;;;9.77;4.23;;;;;;;16.69;73.20;100293.78;4223731;28;21193;-67
2023/07/15 00:31:18;;;;;;;7.97;4.20;;;;;;;16.70;72.91;100290.84;4206251;28;20232;-67
2023/07/15 00:33:46;;;;;;;9.13;4.30;;;;;;;16.70;72.73;100290.84;4209653;28;20463;-67
2023/07/15 00:36:13;;;;;;;10.03;4.23;;;;;;;16.75;72.71;100293.00;4220113;28;20238;-68
2023/07/15 00:38:41;;;;;;;8.83;4.53;;;;;;;16.79;72.58;100297.03;4219789;28;20606;-67
2023/07/15 00:41:22;;;;;;;8.63;3.87;;;;;;;16.80;71.72;100287.78;4234715;28;22740;-68
2023/07/15 00:46:22;;;;;;;10.17;4.10;;;;;;;16.95;70.79;100285.91;4220020;28;21112;-67
2023/07/15 00:48:51;;;;;;;10.33;4.20;;;;;;;16.97;71.72;100284.88;4217520;28;20246;-68
2023/07/15 00:51:19;;;;;;;10.27;3.93;;;;;;;16.88;73.01;100287.69;4218815;28;20245;-66
2023/07/15 00:53:46;;;;;;;10.23;3.77;;;;;;;16.94;72.42;100284.19;4213425;28;20307;-66
2023/07/15 00:56:13;;;;;;;11.83;4.07;;;;;;;17.01;72.02;100294.34;4225524;28;20300;-67
2023/07/15 00:58:40;;;;;;;7.43;3.80;;;;;;;17.05;71.92;100292.94;4211903;28;20953;-67
2023/07/15 01:01:10;;;;;;;12.50;3.87;;;;;;;16.99;71.93;100291.00;4215450;28;20804;-67
2023/07/15 01:03:40;;;;;;;9.13;3.70;;;;;;;16.99;71.66;100294.56;4222470;28;20269;-67
2023/07/15 01:06:07;;;;;;;11.93;3.90;;;;;;;17.15;70.09;100292.63;4233015;28;20246;-66
2023/07/15 01:08:33;;;;;;;7.33;3.20;;;;;;;17.37;65.89;100293.50;4221470;28;20617;-66
2023/07/15 01:11:00;;;;;;;8.40;2.97;;;;;;;17.76;62.02;100294.03;4212447;28;23603;-69
2023/07/15 01:13:26;;;;;;;6.20;2.83;;;;;;;17.83;61.86;100293.03;4204288;28;20227;-67
2023/07/15 01:15:53;;;;;;;12.03;3.70;;;;;;;17.72;63.35;100290.84;4243639;28;20238;-66
2023/07/15 01:18:20;;;;;;;11.43;3.50;;;;;;;17.66;64.89;100291.63;4224543;28;20223;-68
2023/07/15 01:20:47;;;;;;;8.23;3.63;;;;;;;17.53;65.91;100284.97;4227613;28;25785;-68
2023/07/15 01:23:13;;;;;;;8.93;3.03;;;;;;;17.57;65.78;100283.56;4200442;28;20231;-67
2023/07/15 01:25:40;;;;;;;7.37;3.27;;;;;;;17.52;66.67;100279.72;4217632;28;20556;-67
2023/07/15 01:28:06;;;;;;;7.33;3.10;;;;;;;17.41;67.36;100279.19;4218463;28;20319;-66
2023/07/15 01:30:33;;;;;;;8.80;3.43;;;;;;;17.40;67.27;100282.13;4214848;28;21686;-66
2023/07/15 01:33:00;;;;;;;8.60;3.40;;;;;;;17.45;67.24;100282.38;4219046;28;21147;-67
2023/07/15 01:35:26;;;;;;;6.73;3.20;;;;;;;17.47;67.00;100274.00;4206056;28;20580;-66
2023/07/15 01:37:53;;;;;;;9.07;3.37;;;;;;;17.42;68.03;100271.84;4208130;28;20267;-67
2023/07/15 01:40:19;;;;;;;7.67;3.43;;;;;;;17.47;68.24;100268.53;4217629;28;20241;-68
2023/07/15 01:42:46;;;;;;;6.60;3.13;;;;;;;17.41;69.86;100268.25;4208202;28;20306;-68
2023/07/15 01:45:13;;;;;;;7.90;3.13;;;;;;;17.41;70.72;100265.50;4215198;28;20220;-66
2023/07/15 01:47:40;;;;;;;7.40;3.37;;;;;;;17.33;70.42;100267.56;4220795;28;20629;-66
2023/07/15 01:50:08;;;;;;;7.40;3.37;;;;;;;17.38;70.58;100268.66;4207410;28;21133;-67
2023/07/15 01:52:34;;;;;;;9.37;3.73;;;;;;;17.29;70.38;100269.84;4216867;28;20236;-66
2023/07/15 01:55:01;;;;;;;6.33;3.17;;;;;;;17.25;70.36;100258.44;4213192;28;21591;-67
2023/07/15 01:57:30;;;;;;;10.37;3.70;;;;;;;17.33;70.47;100260.22;4211847;28;20390;-67
2023/07/15 02:00:00;;;;;;;13.93;3.63;;;;;;;17.28;70.05;100265.41;4206106;28;20379;-67
2023/07/15 02:02:27;;;;;;;6.47;3.20;;;;;;;17.34;69.80;100270.09;4221224;28;20241;-66
2023/07/15 02:04:54;;;;;;;15.20;3.93;;;;;;;17.29;70.12;100269.00;4223095;28;25000;-66
2023/07/15 02:07:20;;;;;;;8.57;3.50;;;;;;;17.13;70.16;100259.16;4208117;28;20228;-67
2023/07/15 02:09:47;;;;;;;7.20;3.57;;;;;;;17.35;69.28;100270.94;4211751;28;20236;-68
2023/07/15 02:12:13;;;;;;;6.77;3.10;;;;;;;17.22;69.02;100268.91;4215025;28;20393;-67
2023/07/15 02:14:40;;;;;;;12.80;3.10;;;;;;;17.29;69.71;100260.78;4222117;28;20239;-66
2023/07/15 02:17:06;;;;;;;6.07;3.10;;;;;;;17.36;69.12;100269.91;4214191;28;20252;-68
2023/07/15 02:19:33;;;;;;;5.00;3.10;;;;;;;17.30;67.53;100255.13;4218068;28;20340;-67
2023/07/15 02:22:00;;;;;;;23.50;3.77;;;;;;;17.30;66.60;100255.13;4215454;28;20341;-67
2023/07/15 02:24:26;;;;;;;10.63;3.37;;;;;;;17.22;65.83;100256.06;4207920;28;22534;-68
2023/07/15 02:26:53;;;;;;;7.77;3.07;;;;;;;17.25;64.58;100252.97;4185779;28;20989;-65
2023/07/15 02:29:19;;;;;;;8.40;3.53;;;;;;;17.37;65.63;100263.41;4214999;28;20328;-66
2023/07/15 02:31:46;;;;;;;7.40;3.60;;;;;;;17.49;63.77;100269.16;4219552;28;20335;-67
2023/07/15 02:34:13;;;;;;;8.13;3.10;;;;;;;17.57;63.29;100272.63;4226050;28;20239;-66
2023/07/15 02:36:40;;;;;;;8.00;3.20;;;;;;;17.62;62.61;100277.50;4230805;28;20619;-66
2023/07/15 02:39:06;;;;;;;7.17;3.40;;;;;;;17.58;63.34;100271.56;4233986;28;20241;-68
2023/07/15 02:41:33;;;;;;;8.77;3.57;;;;;;;17.58;62.62;100277.06;4223908;28;25487;-66
2023/07/15 02:43:59;;;;;;;7.67;3.10;;;;;;;17.62;64.31;100272.03;4228899;28;23034;-67
2023/07/15 02:46:26;;;;;;;11.77;3.50;;;;;;;17.85;63.43;100274.50;4240335;28;20231;-65
2023/07/15 02:48:53;;;;;;;7.77;3.43;;;;;;;17.79;62.19;100271.75;4229404;28;21689;-67
2023/07/15 02:51:20;;;;;;;7.77;3.80;;;;;;;17.83;60.78;100275.75;4228268;28;20409;-67
2023/07/15 02:53:47;;;;;;;10.20;3.70;;;;;;;18.00;62.92;100274.44;4213779;28;21376;-67
2023/07/15 02:56:14;;;;;;;9.67;3.40;;;;;;;17.96;61.42;100277.78;4225572;28;21728;-67
2023/07/15 02:58:41;;;;;;;7.83;3.23;;;;;;;18.05;61.58;100277.41;4276704;28;20263;-66
2023/07/15 03:01:08;;;;;;;8.37;3.20;;;;;;;18.11;61.68;100277.66;4253316;28;20418;-66
2023/07/15 03:03:36;;;;;;;5.00;3.03;;;;;;;18.29;61.89;100274.38;4233644;28;20306;-64
2023/07/15 03:06:02;;;;;;;9.97;3.37;;;;;;;18.24;61.09;100272.25;4246715;28;20227;-66
2023/07/15 03:08:30;;;;;;;6.93;3.10;;;;;;;18.25;61.52;100275.84;4268844;28;20237;-66
2023/07/15 03:10:56;;;;;;;10.63;3.63;;;;;;;18.31;60.03;100277.78;4249005;28;20251;-67
2023/07/15 03:13:26;;;;;;;7.03;3.30;;;;;;;18.32;60.98;100288.53;4249860;28;20284;-66
2023/07/15 03:15:53;;;;;;;5.33;2.93;;;;;;;18.29;62.64;100282.59;4260761;28;20232;-66
2023/07/15 03:18:23;;;;;;;9.20;3.60;;;;;;;18.27;61.29;100273.75;4257507;28;20278;-67
2023/07/15 03:20:50;;;;;;;8.30;3.10;;;;;;;18.12;60.95;100273.88;4267454;28;21087;-67
2023/07/15 03:23:17;;;;;;;6.07;3.30;;;;;;;18.17;62.47;100271.38;4261512;28;20364;-67
2023/07/15 03:25:44;;;;;;;7.67;3.20;;;;;;;18.16;62.75;100273.28;4254203;28;20425;-65
2023/07/15 03:28:14;;;;;;;9.73;3.80;;;;;;;18.23;62.59;100269.72;4284686;28;22571;-65
2023/07/15 03:30:41;;;;;;;8.27;3.57;;;;;;;18.15;62.90;100266.09;4250074;28;21853;-65
2023/07/15 03:33:08;;;;;;;9.57;3.33;;;;;;;18.18;63.08;100270.31;4253766;28;20375;-67
2023/07/15 03:35:35;;;;;;;8.70;3.60;;;;;;;18.17;61.03;100264.00;4257651;28;20273;-67
2023/07/15 03:38:02;;;;;;;7.93;3.63;;;;;;;18.31;60.72;100262.19;4223262;28;20281;-66
2023/07/15 03:40:29;;;;;;;7.17;3.40;;;;;;;18.47;59.72;100266.47;4235541;28;21139;-65
2023/07/15 03:42:55;;;;;;;7.53;3.37;;;;;;;18.49;61.49;100263.53;4222249;28;20925;-66
2023/07/15 03:45:22;;;;;;;6.90;3.47;;;;;;;18.57;60.65;100274.31;4243218;28;20242;-66
2023/07/15 03:47:49;;;;;;;7.80;3.47;;;;;;;18.61;61.76;100275.63;4263452;28;21620;-65
2023/07/15 03:50:15;;;;;;;7.40;3.20;;;;;;;18.64;62.00;100277.94;4219214;28;21003;-66
2023/07/15 03:52:42;;;;;;;8.27;3.67;;;;;;;18.74;62.29;100282.19;4237349;28;20676;-66
2023/07/15 03:55:09;;;;;;;8.80;3.63;;;;;;;18.90;61.54;100289.19;4233331;28;20455;-67
2023/07/15 03:57:35;;;;;;;7.17;3.43;;;;;;;18.83;61.52;100283.72;4212709;28;20250;-66
2023/07/15 04:00:06;;;;;;;7.80;3.23;;;;;;;18.91;61.85;100290.91;4234977;28;20338;-65
2023/07/15 04:02:33;;;;;;;7.37;3.27;;;;;;;18.92;62.07;100285.22;4247065;28;25191;-65
2023/07/15 04:05:00;;;;;;;7.50;2.80;;;;;;;19.02;60.94;100293.09;4229130;28;20302;-67
2023/07/15 04:07:26;;;;;;;10.60;3.53;;;;;;;19.01;62.58;100296.88;4218601;28;23142;-65
2023/07/15 04:09:53;;;;;;;8.83;3.77;;;;;;;18.92;62.10;100287.97;4239710;28;20357;-66
2023/07/15 04:12:20;;;;;;;9.43;3.80;;;;;;;19.02;63.52;100294.97;4221399;28;25465;-67
2023/07/15 04:14:46;;;;;;;8.27;3.67;;;;;;;19.16;62.75;100291.19;4229720;28;21068;-65
2023/07/15 04:17:13;;;;;;;11.07;3.73;;;;;;;19.34;62.93;100296.09;4230795;28;20284;-66
2023/07/15 04:19:39;;;;;;;8.00;3.50;;;;;;;19.47;62.72;100296.13;4231626;28;20291;-68
2023/07/15 04:22:06;;;;;;;10.50;3.63;;;;;;;19.50;62.87;100291.25;4227656;28;20232;-66
2023/07/15 04:24:33;;;;;;;7.47;3.60;;;;;;;19.62;62.97;100289.59;4227180;28;20239;-66
2023/07/15 04:27:02;;;;;;;12.83;4.60;;;;;;;19.38;61.98;100291.88;4216215;28;20345;-66
2023/07/15 04:29:31;;;;;;;10.23;4.73;;;;;;;19.39;61.09;100289.97;4225512;28;20232;-64
2023/07/15 04:31:58;;;;;;;9.37;4.43;;;;;;;19.41;61.06;100291.44;4218352;28;20272;-66
2023/07/15 04:34:25;;;;;;;13.07;4.40;;;;;;;19.69;58.59;100297.81;4225699;28;20341;-66
2023/07/15 04:36:52;;;;;;;10.47;4.50;;;;;;;19.83;58.60;100282.19;4224070;28;20239;-66
2023/07/15 04:39:18;;;;;;;14.80;4.63;;;;;;;20.14;56.76;100289.78;4222638;28;22195;-66
2023/07/15 04:41:46;;;;;;;10.23;4.23;;;;;;;20.30;57.02;100288.47;4213947;28;20276;-66
2023/07/15 04:44:12;;;;;;;10.37;3.90;;;;;;;20.46;57.72;100287.16;4225100;28;20242;-67
2023/07/15 04:46:39;;;;;;;8.93;3.70;;;;;;;20.72;54.69;100280.75;4221477;28;20363;-68
2023/07/15 04:49:06;;;;;;;10.17;3.83;;;;;;;20.77;53.37;100276.50;4241935;28;20242;-67
2023/07/15 04:51:32;;;;;;;7.20;3.80;;;;;;;20.79;53.62;100275.22;4218025;28;20265;-67
2023/07/15 04:54:00;;;;;;;6.57;3.50;;;;;;;20.94;52.57;100274.91;4229333;28;20228;-66
2023/07/15 04:56:26;;;;;;;12.13;3.97;;;;;;;21.04;53.65;100275.28;4230572;28;20234;-66
2023/07/15 04:58:53;;;;;;;6.53;3.80;;;;;;;20.95;52.63;100270.28;4229382;28;22648;-66
2023/07/15 05:01:20;;;;;;;13.63;4.23;;;;;;;20.98;52.63;100269.81;4216183;28;20370;-67
2023/07/15 05:03:46;;;;;;;8.87;4.07;;;;;;;21.04;52.37;100271.69;4232916;28;20242;-67
2023/07/15 05:06:14;;;;;;;9.90;3.83;;;;;;;21.01;52.46;100266.63;4234092;28;20335;-66
2023/07/15 05:08:42;;;;;;;13.73;3.70;;;;;;;20.92;52.84;100273.44;4218762;28;20244;-67
2023/07/15 05:11:08;;;;;;;8.30;3.80;;;;;;;20.84;53.02;100263.56;4221683;28;20424;-71
2023/07/15 05:13:35;;;;;;;13.67;4.10;;;;;;;20.87;53.19;100260.34;4224378;28;20592;-74
2023/07/15 05:16:03;;;;;;;6.03;3.40;;;;;;;20.96;52.31;100264.53;4223257;28;20334;-73
2023/07/15 05:18:29;;;;;;;15.37;3.53;;;;;;;21.12;51.97;100265.09;4221557;28;20230;-76
2023/07/15 05:20:57;;;;;;;8.53;3.33;;;;;;;21.33;51.68;100261.13;4242135;28;20230;-76
2023/07/15 05:23:24;;;;;;;9.37;3.70;;;;;;;21.37;51.75;100273.38;4238977;28;20238;-74
2023/07/15 05:25:51;;;;;;;8.63;3.70;;;;;;;21.49;52.09;100273.50;4214711;28;20250;-76
2023/07/15 05:28:18;;;;;;;9.60;3.80;;;;;;;21.57;51.29;100269.63;4232447;28;24850;-74
2023/07/15 05:30:44;;;;;;;10.27;3.50;;;;;;;21.64;51.09;100271.28;4252118;28;20234;-75
2023/07/15 05:33:12;;;;;;;5.80;3.43;;;;;;;21.87;50.68;100269.81;4246955;28;20239;-72
2023/07/15 05:35:38;;;;;;;9.27;3.80;;;;;;;22.06;49.82;100278.09;4220149;28;20236;-74
2023/07/15 05:38:05;;;;;;;8.73;3.97;;;;;;;22.28;49.42;100273.00;4235015;28;21113;-74
2023/07/15 05:40:31;;;;;;;8.63;3.93;;;;;;;22.88;47.69;100272.31;4222768;28;22320;-75
2023/07/15 05:42:58;;;;;;;7.37;3.70;;;;;;;23.08;47.01;100273.94;4220981;28;20265;-75
2023/07/15 05:45:25;;;;;;;12.93;4.10;;;;;;;23.95;45.78;100278.13;4235773;28;21710;-72
2023/07/15 05:47:52;;;;;;;7.30;3.47;;;;;;;24.48;43.50;100269.88;4255817;28;20728;-74
2023/07/15 05:50:19;;;;;;;8.07;2.97;;;;;;;25.09;42.13;100275.00;4227193;28;22148;-74
2023/07/15 05:52:46;;;;;;;6.95;2.92;;;;;;;24.79;43.12;100265.00;4247511;28;20227;-71
2023/07/15 05:55:13;;;;;;;7.97;2.90;;;;;;;25.53;41.28;100272.50;4226058;28;20320;-73
2023/07/15 05:57:40;;;;;;;9.63;2.70;;;;;;;25.78;40.88;100268.47;4242336;28;20387;-73
2023/07/15 06:00:09;;;;;;;5.13;2.65;;;;;;;26.64;39.05;100261.63;4219615;28;21465;-75
2023/07/15 06:02:38;;;;;;;7.33;2.67;;;;;;;27.78;36.46;100266.41;4232597;28;20590;-75
2023/07/15 06:05:05;;;;;;;9.25;2.70;;;;;;;27.93;35.55;100267.63;4258313;28;20243;-72
2023/07/15 06:07:32;;;;;;;5.78;2.78;;;;;;;28.69;34.46;100271.97;4246819;28;20235;-74
2023/07/15 06:09:58;;;;;;;5.05;2.50;;;;;;;28.88;34.13;100263.13;4259663;28;20250;-75
2023/07/15 06:12:25;;;;;;;8.50;2.97;;;;;;;28.84;33.83;100264.78;4242979;28;20232;-72
2023/07/15 06:14:52;;;;;;;9.27;2.80;;;;;;;29.17;33.19;100257.06;4240373;28;21279;-73
2023/07/15 06:17:20;;;;;;;8.07;2.85;;;;;;;29.49;32.50;100262.41;4235497;28;21497;-75
2023/07/15 06:19:47;;;;;;;6.22;2.97;;;;;;;30.01;31.52;100260.44;4255725;28;20231;-75
2023/07/15 06:22:14;;;;;;;5.93;2.78;;;;;;;29.88;32.47;100267.41;4223727;28;20229;-75
2023/07/15 06:24:40;;;;;;;7.07;2.58;;;;;;;30.13;32.22;100262.09;4233020;28;20326;-79
2023/07/15 06:27:07;;;;;;;8.35;2.40;;;;;;;29.37;33.26;100257.09;4266613;28;22270;-76
2023/07/15 06:29:34;;;;;;;7.38;2.60;;;;;;;29.82;31.96;100270.47;4226255;28;21932;-73
2023/07/15 06:32:01;;;;;;;6.22;2.92;;;;;;;30.83;31.07;100266.88;4230271;28;20483;-76
2023/07/15 06:34:27;;;;;;;7.25;2.60;;;;;;;29.86;32.15;100266.84;4254327;28;20393;-75
2023/07/15 06:36:54;;;;;;;8.07;2.78;;;;;;;30.58;31.27;100268.66;4226081;28;20305;-75
2023/07/15 06:39:21;;;;;;;7.85;2.95;;;;;;;29.84;32.17;100262.66;4238969;28;20268;-76
2023/07/15 06:41:50;;;;;;;7.25;2.70;;;;;;;30.62;31.10;100254.97;4242912;28;20237;-76
2023/07/15 06:44:17;;;;;;;5.43;2.83;;;;;;;31.04;30.55;100258.34;4247507;28;20249;-78
2023/07/15 06:46:43;;;;;;;6.90;2.72;;;;;;;31.41;30.23;100257.84;4215360;28;20282;-72
2023/07/15 06:49:12;;;;;;;9.95;2.50;;;;;;;33.02;26.80;100259.75;4245463;28;20388;-73
2023/07/15 06:51:38;;;;;;;6.63;2.40;;;;;;;31.88;27.92;100261.09;4248208;28;20351;-73
2023/07/15 06:54:05;;;;;;;9.23;2.95;;;;;;;32.17;28.26;100271.44;4252735;28;20605;-73
2023/07/15 06:56:32;;;;;;;6.63;2.70;;;;;;;32.84;27.14;100267.03;4245347;28;20232;-69
2023/07/15 06:58:58;;;;;;;6.07;2.78;;;;;;;32.80;27.90;100261.19;4216384;28;21836;-76
2023/07/15 07:01:25;;;;;;;6.88;3.00;;;;;;;32.85;28.33;100254.69;4246602;28;21132;-74
2023/07/15 07:03:53;;;;;;;6.75;2.75;;;;;;;33.83;26.23;100253.13;4279662;28;20227;-72
2023/07/15 07:06:20;;;;;;;7.90;2.70;;;;;;;34.22;25.82;100260.25;4248951;28;20449;-50
2023/07/15 07:08:47;;;;;;;5.43;2.45;;;;;;;34.25;25.71;100262.47;4225503;28;20629;-68
2023/07/15 07:12:14;;;;;;;5.95;2.78;;;;;;;34.36;25.49;100256.66;4231910;28;20538;-73
2023/07/15 07:14:41;;;;;;;6.13;2.47;;;;;;;34.46;25.91;100252.81;4222757;28;20663;-68
2023/07/15 07:17:08;;;;;;;10.35;2.47;;;;;;;32.33;28.56;100251.69;4215701;28;20513;-70
2023/07/15 07:19:34;;;;;;;4.20;2.42;;;;;;;32.98;27.68;100253.06;4227862;28;20236;-70
2023/07/15 07:22:01;;;;;;;5.00;2.22;;;;;;;33.33;27.48;100253.72;4229857;28;20295;-70
2023/07/15 07:24:27;;;;;;;4.35;2.08;;;;;;;32.99;26.57;100252.78;4246536;28;22144;-69
2023/07/15 07:26:54;;;;;;;5.22;2.53;;;;;;;32.72;27.53;100250.63;4230195;28;20662;-67
2023/07/15 07:29:22;;;;;;;10.68;3.00;;;;;;;32.86;27.35;100257.19;4224328;28;21972;-69
2023/07/15 07:31:49;;;;;;;8.05;2.60;;;;;;;32.60;28.55;100248.25;4272051;28;21944;-70
2023/07/15 07:34:15;;;;;;;9.40;2.78;;;;;;;32.21;28.91;100241.75;4227687;28;25039;-64
2023/07/15 07:36:42;;;;;;;10.27;3.03;;;;;;;31.91;29.45;100240.91;4236782;28;20239;-66
2023/07/15 07:39:09;;;;;;;8.25;2.60;;;;;;;31.64;30.14;100244.22;4248056;28;21448;-66
2023/07/15 07:41:36;;;;;;;8.20;2.72;;;;;;;31.26;30.21;100247.59;4218123;28;20232;-67
2023/07/15 07:44:03;;;;;;;10.85;3.22;;;;;;;31.00;29.93;100244.13;4238220;28;20590;-66
2023/07/15 07:46:30;;;;;;;8.20;2.55;;;;;;;30.65;29.63;100246.84;4235589;28;24758;-66
2023/07/15 07:48:56;;;;;;;8.13;2.45;;;;;;;30.34;31.11;100235.75;4225039;28;20611;-64
2023/07/15 07:51:23;;;;;;;5.82;2.10;;;;;;;30.60;30.04;100230.09;4238043;28;20274;-65
2023/07/15 07:53:50;;;;;;;5.25;2.38;;;;;;;30.19;29.84;100230.22;4238181;28;20281;-65
2023/07/15 07:56:16;;;;;;;4.55;2.20;;;;;;;29.96;30.80;100229.75;4247915;28;20501;-68
2023/07/15 07:58:44;;;;;;;5.22;2.10;;;;;;;30.36;30.21;100232.72;4232450;28;21753;-68
2023/07/15 08:01:12;;;;;;;7.00;2.45;;;;;;;30.73;30.23;100227.78;4240835;28;20922;-64
2023/07/15 08:03:39;;;;;;;11.30;2.63;;;;;;;30.64;30.57;100239.56;4246006;28;20238;-64
2023/07/15 08:06:06;;;;;;;10.43;2.50;;;;;;;30.07;31.15;100243.69;4268222;28;20715;-65
2023/07/15 08:08:33;;;;;;;8.90;2.70;;;;;;;30.12;31.98;100240.88;4238017;28;20240;-64
2023/07/15 08:11:00;;;;;;;8.80;2.28;;;;;;;29.95;31.92;100235.63;4278485;28;20532;-63
2023/07/15 08:13:26;;;;;;;4.97;2.20;;;;;;;29.80;31.73;100245.66;4222962;28;20761;-64
2023/07/15 08:15:53;;;;;;;9.07;2.22;;;;;;;29.08;33.16;100237.28;4234317;28;20332;-68
2023/07/15 08:18:20;;;;;;;7.70;2.80;;;;;;;29.52;33.04;100233.13;4248483;28;21377;-66
2023/07/15 08:20:47;;;;;;;7.53;2.70;;;;;;;29.49;32.90;100239.28;4253801;28;20242;-66
2023/07/15 08:23:14;;;;;;;8.43;2.60;;;;;;;29.39;32.67;100223.34;4225638;28;21114;-66
2023/07/15 08:25:40;;;;;;;6.90;2.47;;;;;;;29.01;33.78;100231.09;4221374;28;20333;-67
2023/07/15 08:28:07;;;;;;;6.88;2.83;;;;;;;29.32;33.34;100226.44;4228125;28;20362;-67
2023/07/15 08:30:36;;;;;;;4.03;2.15;;;;;;;29.20;33.45;100223.03;4221110;28;20231;-67
2023/07/15 08:33:04;;;;;;;4.78;2.50;;;;;;;29.70;32.36;100224.19;4220067;28;20223;-66
2023/07/15 08:35:34;;;;;;;5.18;2.20;;;;;;;29.81;32.05;100226.94;4207619;28;20240;-65
2023/07/15 08:38:01;;;;;;;8.70;2.90;;;;;;;30.30;31.54;100220.72;4238236;28;20450;-67
2023/07/15 08:40:29;;;;;;;4.78;2.22;;;;;;;30.28;31.08;100222.94;4228470;28;20408;-63
2023/07/15 08:42:55;;;;;;;5.55;2.60;;;;;;;30.47;31.05;100222.31;4198401;28;21104;-63
2023/07/15 08:45:24;;;;;;;9.88;2.67;;;;;;;30.22;31.03;100207.34;4238093;28;20229;-65
2023/07/15 08:47:51;;;;;;;4.50;2.10;;;;;;;29.86;32.29;100208.25;4247763;28;21601;-64
2023/07/15 08:50:18;;;;;;;5.60;2.40;;;;;;;29.19;33.11;100210.25;4238595;28;20863;-65
2023/07/15 08:52:46;;;;;;;7.85;2.40;;;;;;;28.74;33.57;100215.44;4215661;28;20242;-63
2023/07/15 08:55:13;;;;;;;7.00;2.50;;;;;;;29.01;33.48;100209.66;4231124;28;20219;-63
2023/07/15 08:57:40;;;;;;;5.07;2.37;;;;;;;29.03;33.63;100212.16;4192308;28;20255;-63
2023/07/15 09:00:11;;;;;;;5.47;2.20;;;;;;;29.16;33.45;100208.00;4225999;28;20242;-63
2023/07/15 09:02:39;;;;;;;6.90;2.40;;;;;;;29.34;33.05;100204.69;4216105;28;20232;-64
2023/07/15 09:05:09;;;;;;;7.18;2.28;;;;;;;29.46;33.24;100203.56;4216767;28;21806;-64
2023/07/15 09:07:44;;;;;;;4.80;2.35;;;;;;;29.77;31.92;100211.91;4223010;28;22904;-66
2023/07/15 09:10:13;;;;;;;9.10;2.70;;;;;;;29.78;32.54;100208.00;4222018;28;20254;-63
2023/07/15 09:12:46;;;;;;;6.18;2.25;;;;;;;29.97;31.57;100208.25;4214224;28;20254;-64
2023/07/15 09:15:13;;;;;;;4.95;2.50;;;;;;;29.85;32.36;100212.16;4215772;28;25116;-63
2023/07/15 09:17:42;;;;;;;4.88;2.22;;;;;;;29.97;31.53;100209.09;4212909;28;21077;-64
2023/07/15 09:20:13;;;;;;;6.97;2.30;;;;;;;30.06;32.09;100195.41;4196258;28;21032;-64
2023/07/15 09:22:40;;;;;;;3.10;2.10;;;;;;;29.85;32.84;100187.03;4214035;28;21145;-68
2023/07/15 09:25:09;;;;;;;8.88;2.80;;;;;;;30.10;31.55;100196.50;4229729;28;21042;-65
2023/07/15 09:27:45;;;;;;;4.47;2.30;;;;;;;29.99;31.60;100187.31;4218140;28;21414;-65
2023/07/15 09:30:12;;;;;;;6.22;2.63;;;;;;;29.96;31.72;100182.28;4212957;28;20526;-65
2023/07/15 09:32:39;;;;;;;5.57;2.40;;;;;;;29.84;32.19;100187.34;4211626;28;20235;-66
2023/07/15 09:35:06;;;;;;;6.85;2.70;;;;;;;29.52;32.80;100186.56;4224056;28;20545;-66
2023/07/15 09:37:33;;;;;;;6.10;3.10;;;;;;;29.58;33.45;100170.63;4216704;28;20944;-65
2023/07/15 09:40:07;;;;;;;5.88;2.60;;;;;;;29.32;33.77;100190.19;4224047;28;20239;-69
2023/07/15 09:42:53;;;;;;;6.05;2.50;;;;;;;29.36;33.85;100187.69;4217498;28;20657;-68
2023/07/15 09:45:33;;;;;;;4.13;2.40;;;;;;;29.36;35.17;100184.91;4211123;28;20250;-67
2023/07/15 09:48:04;;;;;;;4.38;2.45;;;;;;;29.35;33.98;100172.06;4217306;28;25702;-68
2023/07/15 09:50:33;;;;;;;5.70;2.40;;;;;;;29.64;34.60;100177.91;4211436;28;20612;-68
2023/07/15 09:53:00;;;;;;;7.40;2.83;;;;;;;29.56;33.89;100175.69;4210644;28;21629;-64
2023/07/15 09:55:31;;;;;;;4.60;2.53;;;;;;;29.87;33.53;100170.03;4203500;28;20228;-64
2023/07/15 09:58:13;;;;;;;6.10;2.20;;;;;;;29.70;33.33;100170.34;4224231;28;20239;-67
2023/07/15 10:00:47;;;;;;;4.85;2.70;;;;;;;29.05;33.97;100166.19;4214865;28;20293;-66
2023/07/15 10:03:21;;;;;;;8.05;2.78;;;;;;;29.41;33.78;100162.56;4210794;28;20285;-63
2023/07/15 10:05:47;;;;;;;6.78;2.80;;;;;;;29.64;33.61;100175.13;4197705;28;22037;-66
2023/07/15 10:08:14;;;;;;;6.78;2.70;;;;;;;29.30;34.29;100156.16;4223840;28;20271;-75
2023/07/15 10:10:41;;;;;;;6.38;2.22;;;;;;;29.44;33.66;100158.38;4210394;28;20626;-65
2023/07/15 10:13:09;;;;;;;8.23;2.78;;;;;;;29.50;34.86;100157.25;4217092;28;20234;-66
2023/07/15 10:15:37;;;;;;;6.65;2.60;;;;;;;29.19;34.60;100146.94;4208076;28;21942;-63
2023/07/15 10:18:20;;;;;;;8.43;2.93;;;;;;;29.50;33.60;100160.91;4215382;28;20230;-66
2023/07/15 10:20:55;;;;;;;5.95;2.40;;;;;;;29.28;34.52;100146.41;4214457;28;20301;-63
2023/07/15 10:23:26;;;;;;;8.85;2.80;;;;;;;29.23;34.48;100150.00;4220080;28;20333;-64
2023/07/15 10:26:07;;;;;;;7.05;2.50;;;;;;;29.48;34.01;100151.97;4217573;28;20760;-64
2023/07/15 10:28:39;;;;;;;3.78;2.40;;;;;;;29.85;33.79;100153.56;4214080;28;20298;-65
2023/07/15 10:31:08;;;;;;;7.00;2.58;;;;;;;30.02;32.86;100158.81;4221018;28;20853;-63
2023/07/15 10:33:36;;;;;;;8.00;2.70;;;;;;;29.88;33.35;100150.22;4222366;28;20232;-63
2023/07/15 10:36:05;;;;;;;6.47;2.67;;;;;;;30.09;32.89;100149.34;4209507;28;20969;-65
2023/07/15 10:38:32;;;;;;;5.38;2.63;;;;;;;29.95;32.97;100143.53;4211003;28;20240;-65
2023/07/15 10:41:02;;;;;;;5.45;2.70;;;;;;;30.06;33.16;100138.72;4224156;28;20769;-66
2023/07/15 10:43:34;;;;;;;6.35;2.55;;;;;;;29.78;33.60;100150.22;4215019;28;20227;-63
2023/07/15 10:46:21;;;;;;;5.95;2.20;;;;;;;29.88;33.27;100141.00;4215588;28;20599;-64
2023/07/15 10:48:48;;;;;;;9.25;2.50;;;;;;;29.68;33.71;100145.53;4217590;28;20317;-66
2023/07/15 10:51:15;;;;;;;4.18;2.28;;;;;;;29.89;33.58;100134.28;4227945;28;22247;-65
2023/07/15 10:53:42;;;;;;;5.03;2.70;;;;;;;30.31;32.83;100144.22;4233691;28;23003;-65
2023/07/15 10:56:10;;;;;;;5.25;2.80;;;;;;;30.28;33.48;100130.81;4203192;28;20421;-66
2023/07/15 10:58:37;;;;;;;6.13;2.50;;;;;;;29.66;33.60;100128.22;4206096;28;20247;-67
2023/07/15 11:01:05;;;;;;;5.47;2.53;;;;;;;29.51;34.22;100133.84;4217463;28;21581;-64
2023/07/15 11:03:36;;;;;;;5.10;2.28;;;;;;;29.62;34.37;100132.72;4215246;28;21163;-64
2023/07/15 11:06:03;;;;;;;4.68;2.28;;;;;;;29.76;33.88;100123.75;4216535;28;20447;-65
2023/07/15 11:08:39;;;;;;;5.88;2.28;;;;;;;30.02;32.93;100133.72;4212463;28;25816;-62
2023/07/15 11:11:08;;;;;;;4.50;2.30;;;;;;;30.22;32.60;100129.16;4210757;28;20244;-60
2023/07/15 11:13:36;;;;;;;9.48;2.63;;;;;;;30.43;32.55;100124.31;4195776;28;23304;-67
2023/07/15 11:16:03;;;;;;;4.25;2.42;;;;;;;30.41;32.58;100125.69;4211044;28;20231;-65
2023/07/15 11:18:30;;;;;;;5.95;2.70;;;;;;;30.75;31.22;100123.00;4218639;28;20667;-65
2023/07/15 11:20:59;;;;;;;5.00;2.53;;;;;;;30.42;30.83;100131.03;4208339;28;20285;-65
2023/07/15 11:23:29;;;;;;;8.25;3.40;;;;;;;30.24;31.89;100120.50;4212392;28;21027;-64
2023/07/15 11:25:57;;;;;;;4.20;2.22;;;;;;;30.28;31.39;100124.41;4194644;28;21812;-64
2023/07/15 11:28:24;;;;;;;5.70;2.53;;;;;;;30.90;31.17;100115.63;4212644;28;20231;-66
2023/07/15 11:30:51;;;;;;;3.70;2.10;;;;;;;31.13;31.06;100114.88;4203487;28;20231;-63